Time;durP1;ratioP1;P1;durP2;ratioP2;P2;SDS_P1;SDS_P2;PMS_P1;PMS_P2;Temp;Humidity;BMP_temperature;BMP_pressure;BME280_temperature;BME280_humidity;BME280_pressure;Samples;Min_cycle;Max_cycle;Signal;HPM_P1;HPM_P2
2022/09/19 00:00:55;;;;;;;3.23;2.17;;;;;;;;;;4404357;32;20268;-54
2022/09/19 00:03:23;;;;;;;4.47;2.60;;;;;;;;;;4403972;32;20221;-54
2022/09/19 00:05:50;;;;;;;5.70;2.43;;;;;;;;;;4396263;32;20257;-54
2022/09/19 00:08:17;;;;;;;2.77;1.83;;;;;;;;;;4403924;32;20289;-55
2022/09/19 00:10:44;;;;;;;1.97;1.80;;;;;;;;;;4403833;32;20313;-54
2022/09/19 00:13:11;;;;;;;5.17;2.07;;;;;;;;;;4403902;32;20229;-55
2022/09/19 00:15:47;;;;;;;15.83;2.57;;;;;;;;;;4404238;32;20338;-53
2022/09/19 00:18:14;;;;;;;3.80;1.63;;;;;;;;;;4403740;32;20225;-54
2022/09/19 00:20:43;;;;;;;2.47;1.53;;;;;;;;;;4403896;32;20240;-54
2022/09/19 00:26:00;;;;;;;4.43;1.90;;;;;;;;;;4403912;32;20264;-55
2022/09/19 00:28:27;;;;;;;1.83;1.37;;;;;;;;;;4403698;32;20240;-55
2022/09/19 00:30:55;;;;;;;2.50;1.77;;;;;;;;;;4403029;32;20237;-54
2022/09/19 00:33:23;;;;;;;2.97;1.73;;;;;;;;;;4403119;32;20327;-55
2022/09/19 00:35:54;;;;;;;7.03;1.53;;;;;;;;;;4402222;32;20328;-54
2022/09/19 00:38:21;;;;;;;2.87;1.40;;;;;;;;;;4401719;32;20241;-54
2022/09/19 00:40:49;;;;;;;3.40;1.70;;;;;;;;;;4401699;32;20943;-54
2022/09/19 00:43:18;;;;;;;5.20;1.97;;;;;;;;;;4401106;32;20300;-56
2022/09/19 00:45:44;;;;;;;1.83;1.60;;;;;;;;;;4401568;32;20590;-55
2022/09/19 00:48:13;;;;;;;3.23;1.30;;;;;;;;;;4400633;32;20264;-55
2022/09/19 00:50:41;;;;;;;5.10;1.80;;;;;;;;;;4401766;32;20795;-54
2022/09/19 00:53:13;;;;;;;1.83;1.47;;;;;;;;;;4402830;32;20238;-54
2022/09/19 00:55:41;;;;;;;4.53;1.60;;;;;;;;;;4402766;32;20272;-55
2022/09/19 00:58:14;;;;;;;2.57;1.53;;;;;;;;;;4402597;32;20296;-54
2022/09/19 01:00:42;;;;;;;5.67;1.97;;;;;;;;;;4402941;32;20237;-55
2022/09/19 01:03:09;;;;;;;4.63;1.90;;;;;;;;;;4402317;32;20263;-55
2022/09/19 01:05:47;;;;;;;3.17;1.67;;;;;;;;;;4401550;32;20309;-54
2022/09/19 01:08:50;;;;;;;2.83;1.70;;;;;;;;;;4403007;32;20742;-54
2022/09/19 01:11:40;;;;;;;2.73;1.40;;;;;;;;;;4375480;32;20287;-54
2022/09/19 01:14:17;;;;;;;4.17;1.57;;;;;;;;;;4402492;32;20347;-56
2022/09/19 01:16:50;;;;;;;2.80;1.57;;;;;;;;;;4402891;32;20280;-55
2022/09/19 01:19:50;;;;;;;7.23;1.60;;;;;;;;;;4402790;32;20331;-54
2022/09/19 01:22:24;;;;;;;3.07;1.83;;;;;;;;;;4403256;32;20437;-54
2022/09/19 01:24:59;;;;;;;1.90;1.57;;;;;;;;;;4403196;32;20872;-54
2022/09/19 01:27:43;;;;;;;6.40;2.20;;;;;;;;;;4402909;32;20214;-54
2022/09/19 01:30:13;;;;;;;5.83;1.83;;;;;;;;;;4402862;32;20704;-54
2022/09/19 01:32:45;;;;;;;3.93;1.30;;;;;;;;;;4401977;32;20783;-53
2022/09/19 01:35:16;;;;;;;6.63;1.60;;;;;;;;;;4402789;32;20237;-54
2022/09/19 01:37:46;;;;;;;4.90;2.00;;;;;;;;;;4402726;32;20259;-54
2022/09/19 01:40:14;;;;;;;3.77;1.70;;;;;;;;;;4403183;32;20257;-53
2022/09/19 01:42:55;;;;;;;3.37;1.97;;;;;;;;;;4402538;32;20243;-54
2022/09/19 01:45:25;;;;;;;4.90;2.43;;;;;;;;;;4402481;32;20248;-53
2022/09/19 01:48:01;;;;;;;3.77;2.43;;;;;;;;;;4402044;32;20259;-54
2022/09/19 01:50:45;;;;;;;3.93;2.60;;;;;;;;;;4387221;32;20786;-55
2022/09/19 01:53:22;;;;;;;6.97;2.30;;;;;;;;;;4391365;32;20217;-54
2022/09/19 01:55:55;;;;;;;6.30;2.57;;;;;;;;;;4402226;32;20292;-54
2022/09/19 01:58:26;;;;;;;2.40;1.90;;;;;;;;;;4402518;32;20241;-54
2022/09/19 02:01:00;;;;;;;3.03;1.93;;;;;;;;;;4402448;32;20799;-54
2022/09/19 02:03:36;;;;;;;1.73;1.33;;;;;;;;;;4396439;32;20233;-53
2022/09/19 02:06:08;;;;;;;4.37;1.37;;;;;;;;;;4396326;32;20491;-54
2022/09/19 02:08:44;;;;;;;3.63;1.80;;;;;;;;;;4387498;32;20269;-55
2022/09/19 02:11:14;;;;;;;10.30;2.27;;;;;;;;;;4389368;32;20310;-55
2022/09/19 02:13:45;;;;;;;5.60;2.13;;;;;;;;;;4387324;32;20232;-54
2022/09/19 02:16:17;;;;;;;2.17;1.93;;;;;;;;;;4386479;32;20370;-55
2022/09/19 02:18:49;;;;;;;2.63;2.00;;;;;;;;;;4387061;32;20209;-54
2022/09/19 02:21:21;;;;;;;10.60;2.00;;;;;;;;;;4387171;32;20205;-54
2022/09/19 02:23:51;;;;;;;5.93;1.70;;;;;;;;;;4387213;32;20310;-55
2022/09/19 02:26:22;;;;;;;12.77;2.20;;;;;;;;;;4402249;32;20234;-54
2022/09/19 02:28:54;;;;;;;4.97;2.10;;;;;;;;;;4402623;32;20237;-54
2022/09/19 02:31:26;;;;;;;5.43;2.53;;;;;;;;;;4402410;32;20229;-54
2022/09/19 02:33:58;;;;;;;4.30;2.13;;;;;;;;;;4402132;32;20217;-54
2022/09/19 02:36:30;;;;;;;4.40;2.37;;;;;;;;;;4402351;32;20217;-55
2022/09/19 02:39:01;;;;;;;3.70;1.90;;;;;;;;;;4401697;32;20217;-54
2022/09/19 02:41:36;;;;;;;5.00;1.80;;;;;;;;;;4401612;32;20738;-54
2022/09/19 02:44:13;;;;;;;2.70;1.60;;;;;;;;;;4401767;32;20216;-54
2022/09/19 02:46:54;;;;;;;4.07;2.17;;;;;;;;;;4401912;32;20245;-55
2022/09/19 02:49:34;;;;;;;4.83;1.80;;;;;;;;;;4401697;32;20283;-54
2022/09/19 02:52:07;;;;;;;4.60;2.13;;;;;;;;;;4401692;32;20225;-55
2022/09/19 02:54:37;;;;;;;3.87;2.00;;;;;;;;;;4401338;32;20621;-54
2022/09/19 02:57:08;;;;;;;4.60;1.77;;;;;;;;;;4401056;32;20696;-54
2022/09/19 02:59:40;;;;;;;3.83;1.67;;;;;;;;;;4401485;32;20275;-54
2022/09/19 03:02:16;;;;;;;4.63;2.43;;;;;;;;;;4394397;32;20287;-55
2022/09/19 03:04:48;;;;;;;3.03;1.93;;;;;;;;;;4391286;32;20282;-54
2022/09/19 03:07:23;;;;;;;4.47;2.97;;;;;;;;;;4400555;32;20613;-55
2022/09/19 03:09:58;;;;;;;5.47;2.50;;;;;;;;;;4401734;32;20245;-54
2022/09/19 03:12:30;;;;;;;7.37;2.70;;;;;;;;;;4401499;32;20205;-54
2022/09/19 03:14:58;;;;;;;3.30;1.87;;;;;;;;;;4401336;32;20225;-55
2022/09/19 03:17:32;;;;;;;4.63;2.27;;;;;;;;;;4401473;32;20222;-54
2022/09/19 03:20:00;;;;;;;7.87;2.17;;;;;;;;;;4401803;32;20737;-53
2022/09/19 03:22:27;;;;;;;5.50;2.73;;;;;;;;;;4401540;32;20217;-55
2022/09/19 03:24:54;;;;;;;3.33;2.50;;;;;;;;;;4401795;32;20260;-53
2022/09/19 03:27:20;;;;;;;6.00;2.30;;;;;;;;;;4401246;32;20233;-54
2022/09/19 03:29:47;;;;;;;4.20;2.47;;;;;;;;;;4404081;32;20345;-56
2022/09/19 03:32:14;;;;;;;3.10;2.67;;;;;;;;;;4404126;32;20340;-54
2022/09/19 03:34:43;;;;;;;7.80;2.70;;;;;;;;;;4404618;32;20348;-54
2022/09/19 03:37:11;;;;;;;3.03;2.00;;;;;;;;;;4404262;32;20281;-54
2022/09/19 03:39:38;;;;;;;4.10;2.07;;;;;;;;;;4404968;32;20295;-54
2022/09/19 03:42:06;;;;;;;6.83;2.27;;;;;;;;;;4404918;32;20237;-54
2022/09/19 03:44:33;;;;;;;3.47;2.20;;;;;;;;;;4404483;32;20264;-57
2022/09/19 03:47:00;;;;;;;6.10;2.70;;;;;;;;;;4403491;32;20249;-55
2022/09/19 03:49:27;;;;;;;4.00;2.30;;;;;;;;;;4403843;32;20685;-55
2022/09/19 03:51:58;;;;;;;3.53;2.80;;;;;;;;;;4404226;32;20640;-55
2022/09/19 03:54:25;;;;;;;8.33;3.23;;;;;;;;;;4403926;32;20303;-53
2022/09/19 03:56:52;;;;;;;5.87;2.93;;;;;;;;;;4403912;32;20264;-55
2022/09/19 03:59:19;;;;;;;8.73;4.10;;;;;;;;;;4403646;32;20378;-55
2022/09/19 04:01:46;;;;;;;6.80;4.47;;;;;;;;;;4403387;32;20252;-55
2022/09/19 04:04:14;;;;;;;6.37;4.00;;;;;;;;;;4404153;32;20241;-54
2022/09/19 04:06:41;;;;;;;6.93;4.03;;;;;;;;;;4403736;32;20271;-54
2022/09/19 04:09:09;;;;;;;10.40;3.80;;;;;;;;;;4403896;32;20306;-55
2022/09/19 04:11:37;;;;;;;8.40;4.33;;;;;;;;;;4403710;32;20248;-55
2022/09/19 04:14:04;;;;;;;6.67;4.33;;;;;;;;;;4403287;32;20263;-55
2022/09/19 04:16:30;;;;;;;5.80;4.00;;;;;;;;;;4403528;32;20248;-55
2022/09/19 04:18:58;;;;;;;5.93;4.03;;;;;;;;;;4403586;32;20308;-54
2022/09/19 04:21:25;;;;;;;12.93;4.83;;;;;;;;;;4403572;32;20218;-54
2022/09/19 04:23:54;;;;;;;11.33;4.70;;;;;;;;;;4403802;32;20316;-54
2022/09/19 04:26:25;;;;;;;7.13;3.97;;;;;;;;;;4403407;32;20217;-54
2022/09/19 04:28:51;;;;;;;7.97;4.97;;;;;;;;;;4403433;32;20248;-54
2022/09/19 04:31:18;;;;;;;10.17;5.20;;;;;;;;;;4403455;32;20226;-56
2022/09/19 04:33:45;;;;;;;10.00;6.00;;;;;;;;;;4403263;32;20300;-54
2022/09/19 04:36:13;;;;;;;14.77;5.20;;;;;;;;;;4403595;32;20296;-54
2022/09/19 04:38:40;;;;;;;9.47;4.90;;;;;;;;;;4402991;32;21258;-54
2022/09/19 04:41:08;;;;;;;8.47;4.07;;;;;;;;;;4403157;32;20963;-53
2022/09/19 04:43:36;;;;;;;5.53;3.73;;;;;;;;;;4402902;32;20288;-55
2022/09/19 04:46:06;;;;;;;11.87;4.37;;;;;;;;;;4402908;32;20264;-54
2022/09/19 04:48:33;;;;;;;6.83;3.50;;;;;;;;;;4403046;32;20234;-55
2022/09/19 04:51:00;;;;;;;12.70;9.53;;;;;;;;;;4403018;32;20346;-54
2022/09/19 04:53:30;;;;;;;18.03;6.73;;;;;;;;;;4402941;32;20232;-54
2022/09/19 04:55:57;;;;;;;7.90;7.10;;;;;;;;;;4403722;32;20261;-55
2022/09/19 04:58:24;;;;;;;5.70;4.10;;;;;;;;;;4403231;32;20677;-55
2022/09/19 05:00:53;;;;;;;10.63;3.93;;;;;;;;;;4403461;32;20263;-54
2022/09/19 05:03:25;;;;;;;7.70;4.17;;;;;;;;;;4402375;32;20346;-53
2022/09/19 05:05:52;;;;;;;16.07;5.80;;;;;;;;;;4397693;32;20230;-54
2022/09/19 05:08:25;;;;;;;7.13;5.07;;;;;;;;;;4387586;32;20221;-53
2022/09/19 05:10:54;;;;;;;7.60;5.07;;;;;;;;;;4388025;32;20258;-54
2022/09/19 05:13:22;;;;;;;12.10;5.60;;;;;;;;;;4387442;32;20304;-54
2022/09/19 05:15:50;;;;;;;11.30;5.17;;;;;;;;;;4386951;32;20399;-55
2022/09/19 05:18:20;;;;;;;9.93;5.77;;;;;;;;;;4386866;32;20295;-54
2022/09/19 05:20:47;;;;;;;17.43;5.60;;;;;;;;;;4386751;32;20344;-55
2022/09/19 05:23:14;;;;;;;24.67;7.33;;;;;;;;;;4386614;32;20247;-53
2022/09/19 05:25:41;;;;;;;17.13;4.97;;;;;;;;;;4387227;32;20749;-54
2022/09/19 05:28:09;;;;;;;8.87;5.00;;;;;;;;;;4386141;32;20747;-55
2022/09/19 05:30:39;;;;;;;8.40;4.47;;;;;;;;;;4387323;32;20237;-53
2022/09/19 05:33:06;;;;;;;5.43;4.07;;;;;;;;;;4385844;32;20240;-54
2022/09/19 05:35:35;;;;;;;7.20;3.57;;;;;;;;;;4387028;32;20248;-53
2022/09/19 05:38:02;;;;;;;10.20;3.67;;;;;;;;;;4386659;32;20274;-56
2022/09/19 05:40:29;;;;;;;10.47;3.53;;;;;;;;;;4387547;32;20245;-54
2022/09/19 05:42:59;;;;;;;4.33;2.33;;;;;;;;;;4386887;32;20229;-54
2022/09/19 05:45:27;;;;;;;3.87;2.50;;;;;;;;;;4399673;32;20664;-54
2022/09/19 05:48:00;;;;;;;1.70;1.47;;;;;;;;;;4399451;32;20392;-54
2022/09/19 05:50:27;;;;;;;24.97;6.93;;;;;;;;;;4396049;32;20312;-53
2022/09/19 05:55:40;;;;;;;10.10;2.80;;;;;;;;;;4402044;32;20271;-54
2022/09/19 05:58:08;;;;;;;10.47;2.73;;;;;;;;;;4402794;32;20290;-53
2022/09/19 06:00:37;;;;;;;5.47;2.67;;;;;;;;;;4402988;32;20272;-53
2022/09/19 06:03:06;;;;;;;3.93;1.93;;;;;;;;;;4398633;32;20222;-54
2022/09/19 06:05:39;;;;;;;12.97;4.23;;;;;;;;;;4394623;32;20237;-54
2022/09/19 06:08:08;;;;;;;8.47;3.20;;;;;;;;;;4400370;32;20233;-54
2022/09/19 06:10:37;;;;;;;4.17;2.43;;;;;;;;;;4400847;32;20245;-54
2022/09/19 06:13:04;;;;;;;13.83;4.57;;;;;;;;;;4400942;32;20633;-54
2022/09/19 06:15:31;;;;;;;16.27;4.60;;;;;;;;;;4398684;32;20551;-54
2022/09/19 06:17:59;;;;;;;6.17;4.13;;;;;;;;;;4400133;32;20248;-54
2022/09/19 06:20:27;;;;;;;11.17;4.30;;;;;;;;;;4401210;32;20245;-54
2022/09/19 06:22:57;;;;;;;10.37;4.53;;;;;;;;;;4401437;32;20358;-54
2022/09/19 06:25:27;;;;;;;10.03;4.40;;;;;;;;;;4401986;32;20266;-55
2022/09/19 06:27:55;;;;;;;8.07;4.00;;;;;;;;;;4401646;32;20597;-54
2022/09/19 06:30:22;;;;;;;14.17;7.03;;;;;;;;;;4402103;32;20353;-54
2022/09/19 06:32:49;;;;;;;7.23;4.13;;;;;;;;;;4401402;32;20766;-53
2022/09/19 06:35:16;;;;;;;11.90;3.67;;;;;;;;;;4401371;32;20237;-54
2022/09/19 06:37:43;;;;;;;9.47;3.90;;;;;;;;;;4401166;32;20240;-54
2022/09/19 06:40:10;;;;;;;6.40;3.37;;;;;;;;;;4401560;32;20288;-54
2022/09/19 06:42:38;;;;;;;3.60;2.87;;;;;;;;;;4401183;32;20662;-54
2022/09/19 06:45:07;;;;;;;7.00;3.10;;;;;;;;;;4400485;32;20608;-54
2022/09/19 06:47:35;;;;;;;7.13;3.27;;;;;;;;;;4400935;32;20268;-54
2022/09/19 06:50:03;;;;;;;5.20;3.40;;;;;;;;;;4400729;32;20249;-54
2022/09/19 06:52:29;;;;;;;10.07;3.87;;;;;;;;;;4400497;32;20299;-53
2022/09/19 06:54:58;;;;;;;9.47;4.50;;;;;;;;;;4391787;32;20240;-54
2022/09/19 06:57:25;;;;;;;10.30;4.37;;;;;;;;;;4385944;32;20690;-54
2022/09/19 06:59:53;;;;;;;5.40;4.10;;;;;;;;;;4386363;32;20241;-55
2022/09/19 07:02:21;;;;;;;9.00;4.33;;;;;;;;;;4393322;32;20217;-55
2022/09/19 07:04:48;;;;;;;7.50;4.60;;;;;;;;;;4397051;32;20540;-54
2022/09/19 07:07:15;;;;;;;11.50;4.83;;;;;;;;;;4385456;32;20237;-53
2022/09/19 07:09:42;;;;;;;8.43;4.93;;;;;;;;;;4385680;32;20589;-54
2022/09/19 07:12:10;;;;;;;6.07;3.97;;;;;;;;;;4385249;32;20587;-55
2022/09/19 07:14:37;;;;;;;9.43;4.20;;;;;;;;;;4385972;32;20614;-55
2022/09/19 07:17:06;;;;;;;8.40;5.13;;;;;;;;;;4385340;32;20221;-54
2022/09/19 07:19:33;;;;;;;4.70;2.67;;;;;;;;;;4386094;32;20331;-55
2022/09/19 07:22:00;;;;;;;6.13;3.30;;;;;;;;;;4385755;32;20272;-55
2022/09/19 07:24:26;;;;;;;11.77;3.93;;;;;;;;;;4385673;32;20358;-54
2022/09/19 07:26:53;;;;;;;4.37;3.03;;;;;;;;;;4385755;32;20355;-54
2022/09/19 07:29:20;;;;;;;5.77;4.07;;;;;;;;;;4385591;32;20812;-54
2022/09/19 07:31:47;;;;;;;4.80;2.73;;;;;;;;;;4385745;32;20222;-54
2022/09/19 07:34:16;;;;;;;8.23;3.60;;;;;;;;;;4385709;32;20298;-55
2022/09/19 07:36:43;;;;;;;5.90;3.77;;;;;;;;;;4385949;32;20225;-53
2022/09/19 07:39:10;;;;;;;7.67;2.93;;;;;;;;;;4386535;32;20313;-54
2022/09/19 07:41:37;;;;;;;9.17;3.60;;;;;;;;;;4400293;32;20205;-54
2022/09/19 07:44:04;;;;;;;5.27;2.93;;;;;;;;;;4399614;32;20245;-54
2022/09/19 07:46:31;;;;;;;3.60;2.63;;;;;;;;;;4399859;32;20303;-54
2022/09/19 07:48:58;;;;;;;3.70;2.90;;;;;;;;;;4400223;32;20964;-54
2022/09/19 07:51:30;;;;;;;8.40;2.60;;;;;;;;;;4400435;32;20268;-53
2022/09/19 07:53:57;;;;;;;7.17;3.07;;;;;;;;;;4399358;32;20255;-53
2022/09/19 07:56:24;;;;;;;9.93;3.27;;;;;;;;;;4400221;32;20298;-54
2022/09/19 07:58:51;;;;;;;5.77;2.20;;;;;;;;;;4400721;32;20350;-54
2022/09/19 08:01:18;;;;;;;4.20;2.47;;;;;;;;;;4399735;32;20279;-54
2022/09/19 08:03:46;;;;;;;5.03;2.53;;;;;;;;;;4400298;32;20589;-54
2022/09/19 08:06:13;;;;;;;5.53;2.60;;;;;;;;;;4399965;32;20361;-55
2022/09/19 08:08:41;;;;;;;3.47;2.20;;;;;;;;;;4400771;32;20247;-53
2022/09/19 08:11:09;;;;;;;5.90;2.30;;;;;;;;;;4400173;32;20625;-54
2022/09/19 08:13:36;;;;;;;5.50;2.50;;;;;;;;;;4400806;32;20331;-55
2022/09/19 08:16:03;;;;;;;2.70;1.60;;;;;;;;;;4403084;32;20271;-54
2022/09/19 08:18:31;;;;;;;7.60;2.80;;;;;;;;;;4403756;32;20221;-54
2022/09/19 08:20:57;;;;;;;3.60;1.70;;;;;;;;;;4403662;32;20272;-54
2022/09/19 08:23:24;;;;;;;3.67;1.60;;;;;;;;;;4403212;32;20571;-54
2022/09/19 08:25:53;;;;;;;4.87;1.90;;;;;;;;;;4403378;32;20409;-54
2022/09/19 08:28:21;;;;;;;2.80;2.20;;;;;;;;;;4403442;32;20205;-54
2022/09/19 08:30:48;;;;;;;3.87;1.90;;;;;;;;;;4402732;32;20318;-54
2022/09/19 08:33:16;;;;;;;2.47;1.80;;;;;;;;;;4402859;32;21254;-54
2022/09/19 08:35:43;;;;;;;3.63;1.90;;;;;;;;;;4399936;32;20241;-55
2022/09/19 08:38:13;;;;;;;4.33;2.00;;;;;;;;;;4400503;32;20257;-54
2022/09/19 08:40:53;;;;;;;3.13;1.80;;;;;;;;;;4403446;32;20789;-54
2022/09/19 08:43:32;;;;;;;3.03;1.63;;;;;;;;;;4403402;32;20257;-55
2022/09/19 08:46:15;;;;;;;2.87;1.70;;;;;;;;;;4403695;32;20253;-54
2022/09/19 08:48:57;;;;;;;4.67;1.80;;;;;;;;;;4403195;32;20279;-54
2022/09/19 08:51:29;;;;;;;3.33;1.60;;;;;;;;;;4403030;32;20248;-54
2022/09/19 08:54:00;;;;;;;11.18;1.98;;;;;;;;;;4400336;32;20315;-55
2022/09/19 08:56:28;;;;;;;6.67;1.67;;;;;;;;;;4387866;32;20222;-54
2022/09/19 08:59:02;;;;;;;4.07;1.20;;;;;;;;;;4387224;32;20292;-53
2022/09/19 09:01:33;;;;;;;6.10;1.83;;;;;;;;;;4389506;32;20504;-54
2022/09/19 09:04:17;;;;;;;5.03;1.35;;;;;;;;;;4402759;32;20213;-54
2022/09/19 09:06:53;;;;;;;8.20;1.87;;;;;;;;;;4390452;32;20205;-54
2022/09/19 09:09:32;;;;;;;12.10;1.48;;;;;;;;;;4388032;32;20291;-54
2022/09/19 09:12:09;;;;;;;8.80;1.85;;;;;;;;;;4387660;32;20386;-54
2022/09/19 09:14:50;;;;;;;1.52;1.20;;;;;;;;;;4388660;32;20326;-54
2022/09/19 09:17:29;;;;;;;8.73;1.77;;;;;;;;;;4387972;32;20240;-54
2022/09/19 09:20:18;;;;;;;2.35;1.52;;;;;;;;;;4387826;32;20229;-54
2022/09/19 09:22:47;;;;;;;2.60;1.65;;;;;;;;;;4387411;32;20210;-56
2022/09/19 09:25:17;;;;;;;3.72;1.83;;;;;;;;;;4387588;32;20674;-53
2022/09/19 09:27:55;;;;;;;3.62;2.45;;;;;;;;;;4387328;32;20221;-54
2022/09/19 09:30:24;;;;;;;2.87;1.60;;;;;;;;;;4387738;32;20259;-54
2022/09/19 09:32:56;;;;;;;3.15;1.85;;;;;;;;;;4396091;32;20302;-54
2022/09/19 09:35:31;;;;;;;4.60;1.98;;;;;;;;;;4402468;32;20573;-54
2022/09/19 09:38:04;;;;;;;5.00;1.60;;;;;;;;;;4402767;32;20241;-54
2022/09/19 09:43:30;;;;;;;3.45;2.05;;;;;;;;;;4396307;32;20375;-54
2022/09/19 09:46:08;;;;;;;1.92;1.20;;;;;;;;;;4396096;32;20290;-55
2022/09/19 09:48:38;;;;;;;4.30;1.98;;;;;;;;;;4398410;32;20661;-55
2022/09/19 09:51:19;;;;;;;3.17;1.42;;;;;;;;;;4386593;32;20612;-54
2022/09/19 09:53:58;;;;;;;2.75;1.80;;;;;;;;;;4392554;32;20244;-55
2022/09/19 09:56:31;;;;;;;6.70;1.73;;;;;;;;;;4386928;32;20341;-54
2022/09/19 10:03:34;;;;;;;6.22;1.55;;;;;;;;;;4387171;32;20240;-54
2022/09/19 10:05:10;;;;;;;3.70;1.85;;;;;;;;;;4390360;32;20516;-55
2022/09/19 10:07:45;;;;;;;4.45;1.62;;;;;;;;;;4402264;32;20294;-55
2022/09/19 10:10:14;;;;;;;5.22;1.65;;;;;;;;;;4402131;32;20343;-55
2022/09/19 10:12:46;;;;;;;3.83;1.70;;;;;;;;;;4401787;32;20229;-54
2022/09/19 10:15:17;;;;;;;7.35;1.70;;;;;;;;;;4401862;32;20288;-54
2022/09/19 10:17:51;;;;;;;3.17;1.73;;;;;;;;;;4402143;32;20224;-54
2022/09/19 10:20:22;;;;;;;4.43;1.42;;;;;;;;;;4401635;32;20269;-55
2022/09/19 10:22:49;;;;;;;3.95;1.30;;;;;;;;;;4402042;32;20245;-55
2022/09/19 10:25:18;;;;;;;1.42;0.98;;;;;;;;;;4401386;32;20798;-55
2022/09/19 10:27:49;;;;;;;1.27;0.93;;;;;;;;;;4401556;32;20311;-54
2022/09/19 10:30:18;;;;;;;2.45;1.10;;;;;;;;;;4401331;32;20252;-55
2022/09/19 10:32:49;;;;;;;1.87;1.10;;;;;;;;;;4401260;32;20288;-54
2022/09/19 10:35:26;;;;;;;1.55;1.20;;;;;;;;;;4401493;32;20253;-55
2022/09/19 10:37:54;;;;;;;3.10;1.40;;;;;;;;;;4401575;32;20257;-54
2022/09/19 10:40:23;;;;;;;2.08;1.27;;;;;;;;;;4401690;32;20271;-54
2022/09/19 10:42:50;;;;;;;1.65;1.02;;;;;;;;;;4401292;32;20254;-54
2022/09/19 10:45:25;;;;;;;3.12;1.25;;;;;;;;;;4390541;32;20238;-55
2022/09/19 10:47:57;;;;;;;2.58;1.37;;;;;;;;;;4386011;32;20285;-53
2022/09/19 10:50:24;;;;;;;3.97;1.10;;;;;;;;;;4400540;32;20261;-54
2022/09/19 10:52:59;;;;;;;3.97;1.30;;;;;;;;;;4398762;32;20226;-53
2022/09/19 10:55:26;;;;;;;3.83;0.98;;;;;;;;;;4398418;32;20664;-55
2022/09/19 10:57:59;;;;;;;3.83;1.12;;;;;;;;;;4401598;32;20256;-54
2022/09/19 11:00:28;;;;;;;2.15;1.15;;;;;;;;;;4401240;32;20814;-54
2022/09/19 11:03:05;;;;;;;3.70;1.30;;;;;;;;;;4401124;32;20267;-54
2022/09/19 11:05:34;;;;;;;1.85;1.10;;;;;;;;;;4397676;32;20450;-55
2022/09/19 11:08:03;;;;;;;3.33;1.33;;;;;;;;;;4386216;32;20257;-55
2022/09/19 11:10:39;;;;;;;2.92;1.05;;;;;;;;;;4396081;32;20680;-55
2022/09/19 11:13:08;;;;;;;1.90;1.00;;;;;;;;;;4386682;32;20236;-54
2022/09/19 11:15:42;;;;;;;2.37;1.10;;;;;;;;;;4400839;32;20277;-55
2022/09/19 11:18:22;;;;;;;1.33;1.00;;;;;;;;;;4394972;32;20306;-55
2022/09/19 11:20:57;;;;;;;3.03;1.37;;;;;;;;;;4386254;32;20851;-55
2022/09/19 11:23:50;;;;;;;3.70;1.35;;;;;;;;;;4386848;32;20229;-54
2022/09/19 11:26:30;;;;;;;4.80;1.70;;;;;;;;;;4401219;32;20247;-54
2022/09/19 11:29:13;;;;;;;1.83;1.17;;;;;;;;;;4401822;32;20242;-54
2022/09/19 11:31:44;;;;;;;5.97;1.37;;;;;;;;;;4401354;32;20360;-54
2022/09/19 11:34:22;;;;;;;3.28;1.30;;;;;;;;;;4401707;32;20272;-53
2022/09/19 11:37:03;;;;;;;3.00;1.75;;;;;;;;;;4398915;32;20244;-55
2022/09/19 11:39:43;;;;;;;2.05;1.27;;;;;;;;;;4400640;32;20624;-55
2022/09/19 11:42:24;;;;;;;2.47;1.25;;;;;;;;;;4401590;32;20335;-55
2022/09/19 11:45:02;;;;;;;4.40;1.02;;;;;;;;;;4401359;32;20241;-55
2022/09/19 11:48:02;;;;;;;1.35;0.90;;;;;;;;;;4399721;32;20322;-54
2022/09/19 11:50:54;;;;;;;2.85;1.00;;;;;;;;;;4399253;32;20249;-54
2022/09/19 11:53:43;;;;;;;5.45;1.20;;;;;;;;;;4358805;32;20274;-55
2022/09/19 11:56:36;;;;;;;1.90;1.15;;;;;;;;;;4336079;33;20320;-55
2022/09/19 11:59:16;;;;;;;3.47;1.33;;;;;;;;;;4344061;33;20320;-54
2022/09/19 12:01:53;;;;;;;2.15;1.02;;;;;;;;;;4329838;33;20309;-54
2022/09/19 12:04:35;;;;;;;2.20;0.93;;;;;;;;;;4333616;33;20598;-55
2022/09/19 12:07:28;;;;;;;6.78;0.93;;;;;;;;;;4344186;33;20427;-55
2022/09/19 12:10:00;;;;;;;2.53;1.33;;;;;;;;;;4343890;33;20330;-56
2022/09/19 12:12:31;;;;;;;2.05;0.95;;;;;;;;;;4343569;33;20284;-55
2022/09/19 12:15:15;;;;;;;3.10;1.30;;;;;;;;;;4341436;33;20297;-54
2022/09/19 12:17:46;;;;;;;2.00;1.20;;;;;;;;;;4342241;33;20368;-54
2022/09/19 12:20:19;;;;;;;2.60;1.25;;;;;;;;;;4338629;32;20361;-56
2022/09/19 12:22:52;;;;;;;1.40;0.90;;;;;;;;;;4342053;32;20218;-55
2022/09/19 12:25:22;;;;;;;2.65;0.82;;;;;;;;;;4341993;33;20273;-55
2022/09/19 12:27:53;;;;;;;1.73;1.27;;;;;;;;;;4341415;33;20223;-55
2022/09/19 12:30:23;;;;;;;2.67;1.35;;;;;;;;;;4351530;32;20246;-56
2022/09/19 12:32:56;;;;;;;1.83;1.33;;;;;;;;;;4346706;32;20262;-55
2022/09/19 12:35:31;;;;;;;1.60;1.12;;;;;;;;;;4341504;33;20746;-55
2022/09/19 12:38:09;;;;;;;8.60;2.67;;;;;;;;;;4343108;33;20267;-55
2022/09/19 12:40:43;;;;;;;4.97;1.48;;;;;;;;;;4343672;33;20655;-54
2022/09/19 12:43:17;;;;;;;1.60;0.90;;;;;;;;;;4343598;33;20765;-55
2022/09/19 12:45:53;;;;;;;2.92;1.00;;;;;;;;;;4343803;33;20250;-55
2022/09/19 12:48:38;;;;;;;1.08;0.77;;;;;;;;;;4344934;32;20238;-57
2022/09/19 12:51:11;;;;;;;0.82;0.73;;;;;;;;;;4358403;32;20606;-54
2022/09/19 12:53:43;;;;;;;0.75;0.70;;;;;;;;;;4344173;33;20318;-55
2022/09/19 12:56:16;;;;;;;1.75;0.90;;;;;;;;;;4342904;33;20322;-55
2022/09/19 12:58:52;;;;;;;0.70;0.70;;;;;;;;;;4342725;33;20793;-54
2022/09/19 13:01:24;;;;;;;1.77;1.42;;;;;;;;;;4343438;33;20722;-54
2022/09/19 13:03:56;;;;;;;4.15;1.00;;;;;;;;;;4343835;33;20214;-56
2022/09/19 13:06:30;;;;;;;3.15;1.00;;;;;;;;;;4335145;33;20282;-54
2022/09/19 13:09:05;;;;;;;1.35;0.90;;;;;;;;;;4328725;33;20214;-55
2022/09/19 13:11:39;;;;;;;2.10;0.70;;;;;;;;;;4328737;33;20715;-54
2022/09/19 13:14:14;;;;;;;2.08;1.00;;;;;;;;;;4344501;32;20451;-56
2022/09/19 13:24:59;;;;;;;0.90;0.77;;;;;;;;;;4349441;32;20261;-56
2022/09/19 13:27:26;;;;;;;1.65;1.00;;;;;;;;;;4358064;32;20233;-55
2022/09/19 13:29:55;;;;;;;1.05;0.80;;;;;;;;;;4357471;32;20399;-55
2022/09/19 13:32:52;;;;;;;1.83;0.80;;;;;;;;;;4347675;32;20353;-55
2022/09/19 13:35:22;;;;;;;2.15;0.65;;;;;;;;;;4343141;32;20246;-55
2022/09/19 13:38:00;;;;;;;1.42;0.80;;;;;;;;;;4346295;32;20670;-56
2022/09/19 13:40:43;;;;;;;2.80;1.30;;;;;;;;;;4355291;32;20246;-55
2022/09/19 13:43:35;;;;;;;5.55;1.00;;;;;;;;;;4355301;32;20262;-55
2022/09/19 13:46:07;;;;;;;3.08;1.37;;;;;;;;;;4355794;32;20242;-55
2022/09/19 13:48:39;;;;;;;7.40;1.30;;;;;;;;;;4350989;32;20254;-55
2022/09/19 13:51:08;;;;;;;3.37;0.88;;;;;;;;;;4355669;32;20250;-54
2022/09/19 13:53:42;;;;;;;1.83;1.00;;;;;;;;;;4357446;32;20293;-55
2022/09/19 13:56:27;;;;;;;1.98;1.12;;;;;;;;;;4349038;32;20337;-55
2022/09/19 13:59:19;;;;;;;1.02;0.70;;;;;;;;;;4327493;32;20282;-54
2022/09/19 14:01:58;;;;;;;4.65;1.15;;;;;;;;;;4357227;32;20222;-55
2022/09/19 14:04:57;;;;;;;6.82;0.98;;;;;;;;;;4343916;32;20333;-55
2022/09/19 14:07:35;;;;;;;1.40;0.90;;;;;;;;;;4348817;32;20262;-55
2022/09/19 14:10:06;;;;;;;3.80;1.08;;;;;;;;;;4357252;32;20230;-54
2022/09/19 14:13:04;;;;;;;4.07;1.00;;;;;;;;;;4356497;32;20231;-55
2022/09/19 14:15:45;;;;;;;4.22;1.12;;;;;;;;;;4327860;33;20269;-56
2022/09/19 14:18:54;;;;;;;1.85;0.90;;;;;;;;;;4327166;33;20249;-55
2022/09/19 14:21:55;;;;;;;1.65;0.90;;;;;;;;;;4288530;33;20270;-55
2022/09/19 14:25:02;;;;;;;1.20;0.90;;;;;;;;;;4295639;33;20265;-57
2022/09/19 14:28:05;;;;;;;2.70;1.40;;;;;;;;;;4324233;32;20748;-55
2022/09/19 14:31:05;;;;;;;1.30;0.70;;;;;;;;;;4357095;32;20241;-56
2022/09/19 14:34:15;;;;;;;1.55;0.80;;;;;;;;;;4354415;32;20633;-54
2022/09/19 14:37:07;;;;;;;4.72;0.73;;;;;;;;;;4345500;32;20257;-55
2022/09/19 14:39:48;;;;;;;1.73;1.00;;;;;;;;;;4354664;32;20358;-54
2022/09/19 14:42:56;;;;;;;0.82;0.73;;;;;;;;;;4356389;32;20292;-55
2022/09/19 14:45:39;;;;;;;3.78;0.98;;;;;;;;;;4305442;33;20264;-55
2022/09/19 14:48:15;;;;;;;4.90;1.00;;;;;;;;;;4334037;32;20366;-55
2022/09/19 14:50:49;;;;;;;0.70;0.70;;;;;;;;;;4339093;33;20250;-56
2022/09/19 14:53:25;;;;;;;5.28;0.98;;;;;;;;;;4340578;33;20656;-57
2022/09/19 14:55:58;;;;;;;2.17;1.23;;;;;;;;;;4340055;33;20261;-55
2022/09/19 14:58:27;;;;;;;1.73;1.02;;;;;;;;;;4340040;33;20327;-56
2022/09/19 15:01:06;;;;;;;4.03;0.77;;;;;;;;;;4339740;32;20412;-54
2022/09/19 15:03:45;;;;;;;0.60;0.60;;;;;;;;;;4339182;33;20298;-55
2022/09/19 15:06:17;;;;;;;1.65;1.02;;;;;;;;;;4338755;33;20376;-54
2022/09/19 15:08:49;;;;;;;2.03;1.20;;;;;;;;;;4340721;33;20313;-57
2022/09/19 15:11:18;;;;;;;1.98;1.10;;;;;;;;;;4340506;32;20298;-55
2022/09/19 15:13:46;;;;;;;3.92;1.45;;;;;;;;;;4339469;33;20359;-55
2022/09/19 15:16:15;;;;;;;4.35;1.27;;;;;;;;;;4340702;33;20357;-55
2022/09/19 15:18:43;;;;;;;1.92;1.23;;;;;;;;;;4341164;33;20277;-55
2022/09/19 15:21:17;;;;;;;3.08;1.17;;;;;;;;;;4346156;33;20300;-55
2022/09/19 15:23:45;;;;;;;3.22;1.40;;;;;;;;;;4342874;33;20749;-56
2022/09/19 15:26:16;;;;;;;3.37;1.15;;;;;;;;;;4344897;33;20324;-55
2022/09/19 15:28:55;;;;;;;3.35;1.33;;;;;;;;;;4346318;32;20689;-54
2022/09/19 15:31:25;;;;;;;2.70;1.12;;;;;;;;;;4345575;33;20231;-55
2022/09/19 15:34:01;;;;;;;6.72;1.20;;;;;;;;;;4344328;33;20270;-55